createdAt,value
2022-10-11T16:25:06.400Z,15.07
2022-10-11T16:27:34.371Z,13.82
2022-10-11T16:30:01.775Z,14.38
2022-10-11T16:32:28.821Z,15.48
2022-10-11T16:34:55.753Z,15.50
2022-10-11T16:37:22.706Z,18.02
2022-10-11T16:39:49.819Z,16.42
2022-10-11T16:42:16.928Z,18.27
2022-10-11T16:44:43.911Z,17.17
2022-10-11T16:47:11.106Z,19.15
2022-10-11T16:49:38.731Z,19.35
2022-10-11T16:52:05.887Z,20.23
2022-10-11T16:54:32.871Z,18.50
2022-10-11T16:57:00.406Z,18.77
2022-10-11T16:59:27.849Z,17.83
2022-10-11T17:01:55.482Z,18.42
2022-10-11T17:04:22.493Z,24.17
2022-10-11T17:06:49.543Z,22.85
2022-10-11T17:09:16.734Z,22.40
2022-10-11T17:11:44.141Z,22.13
2022-10-11T17:14:13.123Z,23.67
2022-10-11T17:16:40.119Z,22.52
2022-10-11T17:19:12.321Z,23.58
2022-10-11T17:21:41.153Z,26.08
2022-10-11T17:24:08.261Z,29.05
2022-10-11T17:26:35.368Z,34.70
2022-10-11T17:29:02.624Z,37.95
2022-10-11T17:31:30.792Z,47.60
2022-10-11T17:33:59.664Z,44.95
2022-10-11T17:36:32.166Z,44.92
2022-10-11T17:39:03.113Z,44.28
2022-10-11T17:41:32.205Z,46.40
2022-10-11T17:44:00.211Z,44.65
2022-10-11T17:46:28.378Z,43.53
2022-10-11T17:48:56.193Z,43.65
2022-10-11T17:51:23.219Z,43.75
2022-10-11T17:53:51.648Z,39.67
2022-10-11T17:56:29.488Z,38.33
2022-10-11T17:58:59.495Z,36.95
2022-10-11T18:01:29.770Z,37.30
2022-10-11T18:04:02.623Z,35.42
2022-10-11T18:06:33.403Z,36.17
2022-10-11T18:09:02.274Z,35.38
2022-10-11T18:11:30.357Z,35.30
2022-10-11T18:13:58.093Z,34.42
2022-10-11T18:16:27.741Z,33.92
2022-10-11T18:18:57.629Z,34.75
2022-10-11T18:21:33.636Z,38.47
2022-10-11T18:24:03.495Z,37.42
2022-10-11T18:26:31.230Z,35.97
2022-10-11T18:28:59.110Z,35.97
2022-10-11T18:31:29.732Z,35.03
2022-10-11T18:33:57.342Z,34.38
2022-10-11T18:36:27.097Z,35.50
2022-10-11T18:38:57.254Z,36.20
2022-10-11T18:41:31.160Z,34.05
2022-10-11T18:44:02.650Z,36.70
2022-10-11T18:46:31.509Z,37.22
2022-10-11T18:49:01.501Z,39.40
2022-10-11T18:51:31.376Z,49.58
2022-10-11T18:54:01.122Z,56.50
2022-10-11T18:56:30.246Z,52.15
2022-10-11T18:58:58.984Z,51.20
2022-10-11T19:01:29.226Z,48.92
2022-10-11T19:03:59.751Z,49.85
2022-10-11T19:06:30.535Z,48.80
2022-10-11T19:09:10.874Z,42.95
2022-10-11T19:11:39.211Z,43.78
2022-10-11T19:14:10.054Z,45.38
2022-10-11T19:16:40.616Z,41.03
2022-10-11T19:19:07.934Z,43.55
2022-10-11T19:21:35.744Z,41.97
2022-10-11T19:24:02.750Z,44.08
2022-10-11T19:26:35.460Z,42.78
2022-10-11T19:29:06.520Z,43.63
2022-10-11T19:31:35.856Z,48.80
2022-10-11T19:34:03.399Z,43.88
2022-10-11T19:36:35.479Z,45.22
2022-10-11T19:39:03.240Z,43.70
2022-10-11T19:41:30.220Z,44.65
2022-10-11T19:43:58.537Z,43.65
2022-10-11T19:46:49.780Z,45.67
2022-10-11T19:49:18.177Z,44.83
2022-10-11T19:51:45.572Z,43.90
2022-10-11T19:54:14.530Z,43.03
2022-10-11T19:56:42.764Z,42.03
2022-10-11T19:59:10.980Z,41.15
2022-10-11T20:01:38.183Z,43.03
2022-10-11T20:04:07.930Z,42.97
2022-10-11T20:06:38.611Z,43.28
2022-10-11T20:11:54.746Z,44.88
2022-10-11T20:14:21.826Z,45.05
2022-10-11T20:16:51.257Z,44.40
2022-10-11T20:19:19.006Z,44.33
2022-10-11T20:21:46.177Z,43.53
2022-10-11T20:24:13.439Z,43.72
2022-10-11T20:26:40.442Z,48.17
2022-10-11T20:29:07.441Z,46.97
2022-10-11T20:31:41.005Z,46.55
2022-10-11T20:34:08.201Z,47.95
2022-10-11T20:36:36.443Z,47.17
2022-10-11T20:39:05.067Z,47.20
2022-10-11T20:41:37.309Z,49.72
2022-10-11T20:44:05.004Z,47.95
2022-10-11T20:46:34.212Z,49.03
2022-10-11T20:49:06.673Z,48.08
2022-10-11T20:51:35.953Z,48.67
2022-10-11T20:54:05.027Z,46.50
2022-10-11T20:56:32.249Z,47.42
2022-10-11T20:59:00.258Z,47.00
2022-10-11T21:01:29.656Z,47.15
2022-10-11T21:04:01.137Z,46.13
2022-10-11T21:06:30.359Z,46.53
2022-10-11T21:08:59.332Z,46.20
2022-10-11T21:11:32.070Z,45.60
2022-10-11T21:14:01.253Z,45.35
2022-10-11T21:16:28.466Z,46.13
2022-10-11T21:18:57.830Z,42.92
2022-10-11T21:21:26.157Z,44.00
2022-10-11T21:23:58.031Z,44.17
2022-10-11T21:26:25.360Z,44.47
2022-10-11T21:28:52.701Z,45.42
2022-10-11T21:31:21.565Z,46.05
2022-10-11T21:33:48.952Z,43.85
2022-10-11T21:36:21.326Z,44.42
2022-10-11T21:38:49.911Z,43.83
2022-10-11T21:41:19.491Z,43.90
2022-10-11T21:43:47.563Z,43.28
2022-10-11T21:46:17.608Z,44.65
2022-10-11T21:48:44.884Z,46.75
2022-10-11T21:51:15.904Z,46.83
2022-10-11T21:53:42.957Z,46.35
2022-10-11T21:56:09.898Z,46.70
2022-10-11T21:58:36.825Z,44.72
2022-10-11T22:01:04.190Z,44.17
2022-10-11T22:03:31.172Z,44.30
2022-10-11T22:05:58.160Z,46.08
2022-10-11T22:08:25.043Z,40.58
2022-10-11T22:10:58.008Z,42.08
2022-10-11T22:13:26.373Z,41.38
2022-10-11T22:15:53.444Z,38.88
2022-10-11T22:18:20.646Z,37.05
2022-10-11T22:20:47.705Z,37.60
2022-10-11T22:23:14.888Z,38.47
2022-10-11T22:25:41.945Z,35.75
2022-10-11T22:28:09.045Z,34.95
2022-10-11T22:30:36.078Z,35.42
2022-10-11T22:33:03.097Z,35.25
2022-10-11T22:35:32.425Z,33.63
2022-10-11T22:38:01.849Z,34.47
2022-10-11T22:40:28.740Z,34.20
2022-10-11T22:42:55.734Z,34.08
2022-10-11T22:45:22.639Z,33.80
2022-10-11T22:47:49.531Z,33.13
2022-10-11T22:50:16.498Z,34.17
2022-10-11T22:52:43.382Z,32.30
2022-10-11T22:55:10.404Z,33.05
2022-10-11T22:57:37.859Z,31.70
2022-10-11T23:00:05.828Z,33.35
2022-10-11T23:02:32.791Z,31.25
2022-10-11T23:04:59.701Z,30.48
2022-10-11T23:07:26.629Z,32.33
2022-10-11T23:09:53.601Z,31.20
2022-10-11T23:12:23.073Z,31.08
2022-10-11T23:14:50.080Z,32.25
2022-10-11T23:17:17.139Z,31.05
2022-10-11T23:19:44.300Z,31.35
2022-10-11T23:22:11.181Z,31.83
2022-10-11T23:24:38.095Z,30.70
2022-10-11T23:27:05.255Z,30.48
2022-10-11T23:29:33.024Z,32.00
2022-10-11T23:31:59.882Z,32.03
2022-10-11T23:34:26.965Z,31.98
2022-10-11T23:36:53.852Z,30.45
2022-10-11T23:39:20.766Z,29.90
2022-10-11T23:41:47.759Z,30.75
2022-10-11T23:44:14.799Z,31.92
2022-10-11T23:46:42.009Z,30.27
2022-10-11T23:49:08.956Z,31.65
2022-10-11T23:51:35.995Z,30.85
2022-10-11T23:54:03.059Z,32.03
2022-10-11T23:56:29.970Z,30.27
2022-10-11T23:58:56.965Z,31.67
